Time;durP1;ratioP1;P1;durP2;ratioP2;P2;SDS_P1;SDS_P2;PMS_P1;PMS_P2;Temp;Humidity;BMP_temperature;BMP_pressure;BME280_temperature;BME280_humidity;BME280_pressure;Samples;Min_cycle;Max_cycle;Signal;HPM_P1;HPM_P2
2023/04/21 00:01:54;;;;;;;6.03;3.25;;;3.70;97.60;;;;;;5008406;28;20562;-66
2023/04/21 00:04:21;;;;;;;9.18;4.40;;;3.60;97.80;;;;;;5009823;28;20078;-69
2023/04/21 00:06:49;;;;;;;5.40;3.63;;;3.60;97.90;;;;;;5003102;28;20415;-66
2023/04/21 00:09:17;;;;;;;7.18;4.05;;;3.60;98.40;;;;;;5014804;28;20061;-66
2023/04/21 00:11:44;;;;;;;7.95;4.25;;;3.60;98.80;;;;;;5014409;28;20046;-65
2023/04/21 00:14:11;;;;;;;10.15;3.97;;;3.60;98.90;;;;;;4998360;28;20104;-66
2023/04/21 00:16:38;;;;;;;9.48;5.53;;;3.50;99.10;;;;;;5008772;28;20053;-66
2023/04/21 00:19:06;;;;;;;8.43;4.65;;;3.50;99.10;;;;;;5008653;28;20092;-66
2023/04/21 00:21:34;;;;;;;9.50;5.57;;;3.50;99.30;;;;;;5015771;28;20115;-67
2023/04/21 00:24:01;;;;;;;9.82;4.50;;;3.40;99.50;;;;;;5010802;28;20456;-66
2023/04/21 00:26:28;;;;;;;10.73;5.40;;;3.40;99.70;;;;;;5010851;28;20042;-66
2023/04/21 00:28:55;;;;;;;11.35;6.57;;;3.30;99.70;;;;;;5002700;28;20058;-66
2023/04/21 00:31:22;;;;;;;12.27;6.80;;;3.30;99.90;;;;;;5015939;28;20058;-66
2023/04/21 00:33:49;;;;;;;11.55;6.22;;;3.30;99.90;;;;;;5011573;28;20050;-66
2023/04/21 00:36:16;;;;;;;11.85;5.55;;;3.20;99.90;;;;;;5015163;28;20475;-66
2023/04/21 00:38:43;;;;;;;10.88;5.75;;;3.20;99.90;;;;;;5014449;28;20487;-66
2023/04/21 00:41:10;;;;;;;12.20;5.05;;;3.20;99.90;;;;;;5005866;28;20050;-66
2023/04/21 00:43:57;;;;;;;9.48;4.97;;;3.20;99.90;;;;;;5002330;28;20464;-66
2023/04/21 00:46:24;;;;;;;11.68;5.40;;;3.10;99.90;;;;;;5011291;28;20058;-66
2023/04/21 00:48:52;;;;;;;12.82;5.50;;;3.10;99.90;;;;;;5003322;28;20143;-67
2023/04/21 00:51:20;;;;;;;9.63;4.82;;;3.10;99.90;;;;;;5003252;28;20124;-66
2023/04/21 00:53:47;;;;;;;12.98;6.18;;;3.10;99.90;;;;;;4993881;28;20059;-66
2023/04/21 00:56:15;;;;;;;8.75;6.00;;;3.00;99.90;;;;;;5001477;28;20046;-67
2023/04/21 00:58:43;;;;;;;12.02;6.88;;;3.00;99.90;;;;;;5000452;28;20097;-66
2023/04/21 01:01:10;;;;;;;9.35;6.97;;;3.00;99.90;;;;;;5017176;28;20053;-67
2023/04/21 01:03:37;;;;;;;20.63;8.60;;;2.90;99.90;;;;;;5019543;28;20052;-67
2023/04/21 01:06:05;;;;;;;9.18;7.07;;;2.90;99.90;;;;;;5013545;28;20123;-66
2023/04/21 01:08:32;;;;;;;11.10;6.60;;;2.80;99.90;;;;;;5017510;28;20084;-66
2023/04/21 01:10:59;;;;;;;12.27;7.20;;;2.80;99.90;;;;;;5009432;28;20125;-66
2023/04/21 01:13:26;;;;;;;9.52;5.82;;;2.80;99.90;;;;;;5000904;28;20880;-66
2023/04/21 01:15:53;;;;;;;12.77;6.35;;;2.80;99.90;;;;;;5013755;28;20064;-66
2023/04/21 01:18:20;;;;;;;9.23;6.32;;;2.80;99.90;;;;;;5013545;28;20053;-66
2023/04/21 01:20:48;;;;;;;16.48;7.78;;;2.70;99.90;;;;;;5014262;28;20065;-67
2023/04/21 01:23:17;;;;;;;9.90;5.28;;;2.70;99.90;;;;;;5003661;28;20057;-65
2023/04/21 01:25:44;;;;;;;9.40;6.72;;;2.70;99.90;;;;;;5017114;28;20050;-64
2023/04/21 01:28:11;;;;;;;9.27;6.25;;;2.70;99.90;;;;;;4997780;28;20049;-65
2023/04/21 01:30:38;;;;;;;10.50;6.13;;;2.60;99.90;;;;;;5011265;28;20066;-65
2023/04/21 01:33:05;;;;;;;7.22;5.15;;;2.60;99.90;;;;;;4996676;28;20145;-65
2023/04/21 01:35:32;;;;;;;7.63;5.20;;;2.60;99.90;;;;;;5018703;28;20136;-65
2023/04/21 01:38:00;;;;;;;9.20;4.82;;;2.60;99.90;;;;;;4996360;28;20072;-65
2023/04/21 01:40:27;;;;;;;11.23;5.05;;;2.50;99.90;;;;;;5000761;28;20045;-65
2023/04/21 01:42:54;;;;;;;7.97;5.40;;;2.50;99.90;;;;;;5013983;28;20049;-66
2023/04/21 01:45:21;;;;;;;8.13;5.45;;;2.40;99.90;;;;;;5010947;28;20121;-66
2023/04/21 01:47:48;;;;;;;7.50;5.20;;;2.50;99.90;;;;;;5014525;28;20045;-66
2023/04/21 01:50:15;;;;;;;6.85;5.25;;;2.40;99.90;;;;;;5021455;28;20038;-66
2023/04/21 01:52:42;;;;;;;8.40;4.93;;;2.40;99.90;;;;;;5015595;28;20165;-65
2023/04/21 01:55:09;;;;;;;8.00;4.55;;;2.40;99.90;;;;;;5003627;28;20061;-65
2023/04/21 01:57:36;;;;;;;8.15;5.97;;;2.40;99.90;;;;;;5011999;28;20504;-65
2023/04/21 02:00:04;;;;;;;10.98;5.63;;;2.30;99.90;;;;;;4997539;28;20489;-65
2023/04/21 02:02:40;;;;;;;10.43;5.03;;;2.30;99.90;;;;;;5001320;28;20081;-66
2023/04/21 02:05:07;;;;;;;8.77;5.72;;;2.30;99.90;;;;;;5004814;28;20041;-67
2023/04/21 02:07:35;;;;;;;9.77;5.55;;;2.30;99.90;;;;;;5024750;28;20050;-67
2023/04/21 02:10:01;;;;;;;10.50;4.82;;;2.30;99.90;;;;;;5021017;28;20077;-67
2023/04/21 02:12:28;;;;;;;7.95;5.50;;;2.20;99.90;;;;;;5014400;28;20058;-67
2023/04/21 02:14:55;;;;;;;12.82;5.28;;;2.20;99.90;;;;;;5000868;28;20056;-67
2023/04/21 02:17:22;;;;;;;6.95;4.60;;;2.10;99.90;;;;;;5007714;28;20469;-67
2023/04/21 02:19:49;;;;;;;7.10;4.90;;;2.20;99.90;;;;;;5014458;28;20074;-67
2023/04/21 02:22:16;;;;;;;6.65;4.22;;;2.10;99.90;;;;;;5025144;28;20440;-66
2023/04/21 02:24:43;;;;;;;8.80;5.13;;;2.10;99.90;;;;;;5006591;28;20042;-67
2023/04/21 02:27:11;;;;;;;8.40;4.55;;;2.10;99.90;;;;;;5008959;28;20654;-66
2023/04/21 02:29:38;;;;;;;14.70;5.95;;;2.10;99.90;;;;;;5013955;28;20128;-64
2023/04/21 02:32:06;;;;;;;7.00;4.75;;;2.10;99.90;;;;;;5032120;28;20426;-65
2023/04/21 02:34:51;;;;;;;5.85;4.38;;;2.10;99.90;;;;;;5000366;28;20052;-68
2023/04/21 02:37:18;;;;;;;7.32;4.63;;;2.00;99.90;;;;;;5010005;28;20137;-65
2023/04/21 02:39:45;;;;;;;9.32;5.00;;;2.00;99.90;;;;;;5009547;28;20736;-64
2023/04/21 02:42:12;;;;;;;6.00;4.13;;;2.00;99.90;;;;;;4999867;28;20061;-66
2023/04/21 02:44:39;;;;;;;12.48;4.10;;;1.90;99.90;;;;;;5018222;28;20044;-66
2023/04/21 02:47:06;;;;;;;8.65;4.07;;;1.90;99.90;;;;;;5003639;28;20073;-65
2023/04/21 02:49:38;;;;;;;5.88;4.40;;;1.80;99.90;;;;;;4996683;28;20086;-66
2023/04/21 02:52:05;;;;;;;6.60;3.83;;;1.80;99.90;;;;;;5014821;28;20577;-67
2023/04/21 02:54:32;;;;;;;6.13;4.32;;;1.80;99.90;;;;;;5012650;28;20041;-66
2023/04/21 02:56:59;;;;;;;13.38;4.97;;;1.80;99.90;;;;;;5010930;28;20137;-66
2023/04/21 02:59:26;;;;;;;6.60;3.88;;;1.80;99.90;;;;;;4998122;28;20558;-66
2023/04/21 03:01:53;;;;;;;10.57;4.57;;;1.70;99.90;;;;;;5012039;28;20049;-66
2023/04/21 03:04:20;;;;;;;7.88;3.42;;;1.70;99.90;;;;;;5003653;28;20285;-66
2023/04/21 03:06:47;;;;;;;7.43;4.82;;;1.70;99.90;;;;;;5018482;28;20053;-66
2023/04/21 03:09:14;;;;;;;7.18;4.13;;;1.70;99.90;;;;;;5020683;28;20757;-66
2023/04/21 03:11:41;;;;;;;6.47;3.20;;;1.70;99.90;;;;;;4992751;28;20088;-66
2023/04/21 03:14:08;;;;;;;5.70;4.22;;;1.70;99.90;;;;;;5017904;28;20099;-66
2023/04/21 03:16:35;;;;;;;6.63;3.58;;;1.70;99.90;;;;;;5016606;28;20054;-66
2023/04/21 03:19:02;;;;;;;9.50;4.10;;;1.70;99.90;;;;;;5012914;28;20085;-66
2023/04/21 03:21:30;;;;;;;5.30;3.78;;;1.60;99.90;;;;;;5004119;28;20057;-66
2023/04/21 03:23:57;;;;;;;6.72;3.28;;;1.60;99.90;;;;;;5007069;28;20064;-66
2023/04/21 03:26:24;;;;;;;6.82;3.80;;;1.60;99.90;;;;;;4997049;28;20120;-66
2023/04/21 03:28:51;;;;;;;8.07;4.13;;;1.60;99.90;;;;;;5004311;28;20058;-67
2023/04/21 03:31:18;;;;;;;4.78;3.75;;;1.60;99.90;;;;;;5028871;28;20168;-66
2023/04/21 03:33:45;;;;;;;5.78;3.67;;;1.60;99.90;;;;;;4998552;28;20053;-67
2023/04/21 03:36:12;;;;;;;7.72;4.07;;;1.60;99.90;;;;;;4994286;28;20077;-67
2023/04/21 03:38:39;;;;;;;5.35;3.90;;;1.50;99.90;;;;;;5006023;28;20053;-67
2023/04/21 03:41:06;;;;;;;7.93;3.95;;;1.60;99.90;;;;;;5012563;28;20127;-66
2023/04/21 03:43:33;;;;;;;11.35;4.32;;;1.50;99.90;;;;;;5033291;28;20517;-67
2023/04/21 03:45:59;;;;;;;6.35;3.80;;;1.60;99.90;;;;;;5019872;28;20483;-67
2023/04/21 03:48:28;;;;;;;13.00;5.00;;;1.60;99.90;;;;;;5016199;28;20096;-67
2023/04/21 03:50:55;;;;;;;13.10;4.85;;;1.60;99.90;;;;;;5006079;28;20038;-67
2023/04/21 03:53:21;;;;;;;14.75;4.70;;;1.60;99.90;;;;;;5002632;28;20137;-67
2023/04/21 03:55:51;;;;;;;11.45;3.97;;;1.60;99.90;;;;;;5020485;28;20050;-67
2023/04/21 03:58:18;;;;;;;5.47;3.58;;;1.60;99.90;;;;;;5020881;28;20053;-66
2023/04/21 04:00:45;;;;;;;11.40;4.32;;;1.60;99.90;;;;;;5019966;28;20132;-67
2023/04/21 04:03:12;;;;;;;9.63;4.15;;;1.70;99.90;;;;;;5001520;28;20050;-67
2023/04/21 04:05:39;;;;;;;9.90;4.35;;;1.70;99.90;;;;;;5013867;28;20140;-67
2023/04/21 04:08:06;;;;;;;7.13;4.40;;;1.80;99.90;;;;;;5011199;28;20056;-67
2023/04/21 04:10:33;;;;;;;7.45;3.97;;;1.80;99.90;;;;;;4996123;28;20060;-66
2023/04/21 04:13:00;;;;;;;6.97;3.95;;;1.80;99.90;;;;;;5021864;28;20193;-67
2023/04/21 04:15:27;;;;;;;6.53;3.67;;;1.90;99.90;;;;;;5013019;28;20049;-66
2023/04/21 04:17:54;;;;;;;10.00;4.13;;;1.90;99.90;;;;;;5010183;28;20049;-66
2023/04/21 04:20:21;;;;;;;5.15;3.17;;;1.90;99.90;;;;;;5012629;28;20045;-67
2023/04/21 04:22:48;;;;;;;6.18;3.88;;;1.90;99.90;;;;;;5011353;28;20069;-66
2023/04/21 04:25:15;;;;;;;17.10;4.30;;;2.00;99.90;;;;;;4998274;28;20054;-66
2023/04/21 04:27:48;;;;;;;21.23;6.15;;;2.00;99.90;;;;;;4997376;28;20039;-67
2023/04/21 04:30:15;;;;;;;33.33;10.45;;;2.00;99.90;;;;;;4997340;28;20128;-66
2023/04/21 04:32:42;;;;;;;59.35;9.02;;;2.10;99.90;;;;;;5006889;28;20144;-66
2023/04/21 04:35:11;;;;;;;36.78;7.68;;;2.10;99.90;;;;;;5007773;28;20057;-67
2023/04/21 04:37:40;;;;;;;32.60;6.43;;;2.20;99.90;;;;;;5021033;28;20062;-67
2023/04/21 04:40:13;;;;;;;15.63;4.75;;;2.30;99.90;;;;;;5017100;28;20053;-68
2023/04/21 04:42:41;;;;;;;13.70;4.00;;;2.30;99.90;;;;;;5011628;28;20406;-66
2023/04/21 04:45:08;;;;;;;11.80;3.55;;;2.50;99.90;;;;;;5023256;28;20068;-66
2023/04/21 04:47:35;;;;;;;10.48;3.30;;;2.60;99.90;;;;;;5006295;28;20132;-66
2023/04/21 04:50:02;;;;;;;10.73;2.95;;;2.80;99.90;;;;;;5002461;28;20104;-67
2023/04/21 04:52:29;;;;;;;16.50;3.95;;;2.90;99.90;;;;;;5020548;28;20067;-67
2023/04/21 04:54:56;;;;;;;13.23;4.38;;;3.00;99.90;;;;;;5020670;28;20486;-66
2023/04/21 04:57:23;;;;;;;8.05;2.60;;;3.20;99.90;;;;;;5016769;28;20442;-67
2023/04/21 04:59:56;;;;;;;4.82;2.67;;;3.40;99.90;;;;;;5015582;28;20506;-66
2023/04/21 05:02:23;;;;;;;12.15;3.83;;;3.50;99.90;;;;;;5005725;28;20046;-69
2023/04/21 05:04:50;;;;;;;5.30;2.65;;;3.70;99.90;;;;;;5001058;28;20056;-67
2023/04/21 05:07:17;;;;;;;11.30;2.75;;;3.80;99.90;;;;;;5003554;28;20100;-67
2023/04/21 05:09:44;;;;;;;8.52;3.40;;;3.90;99.90;;;;;;4996316;28;20476;-67
2023/04/21 05:12:11;;;;;;;10.82;4.70;;;4.10;99.90;;;;;;5014011;28;20053;-64
2023/04/21 05:14:38;;;;;;;14.32;4.10;;;4.30;99.90;;;;;;5009123;28;20393;-65
2023/04/21 05:17:05;;;;;;;15.63;3.92;;;4.40;99.90;;;;;;5002380;28;20164;-65
2023/04/21 05:19:35;;;;;;;8.82;2.53;;;4.60;99.90;;;;;;5003225;28;20050;-65
2023/04/21 05:22:02;;;;;;;9.35;3.35;;;4.80;99.90;;;;;;5018067;28;20643;-65
2023/04/21 05:24:29;;;;;;;12.57;4.07;;;5.00;99.90;;;;;;5015191;28;20066;-66
2023/04/21 05:26:55;;;;;;;8.45;2.05;;;5.20;99.90;;;;;;5015826;28;20057;-66
2023/04/21 05:29:22;;;;;;;8.70;3.33;;;5.50;99.70;;;;;;5014659;28;20058;-65
2023/04/21 05:31:49;;;;;;;9.52;2.60;;;5.60;98.80;;;;;;5013242;28;20057;-65
2023/04/21 05:34:16;;;;;;;14.40;3.67;;;5.80;98.40;;;;;;5010559;28;20046;-66
2023/04/21 05:36:43;;;;;;;4.20;2.45;;;5.90;97.70;;;;;;5001983;28;20550;-66
2023/04/21 05:39:10;;;;;;;6.32;3.88;;;6.10;96.90;;;;;;5007752;28;20061;-66
2023/04/21 05:41:37;;;;;;;16.23;5.10;;;6.30;96.50;;;;;;5004678;28;20050;-66
2023/04/21 05:44:03;;;;;;;7.65;3.58;;;6.40;96.60;;;;;;4997818;28;20774;-66
2023/04/21 05:46:33;;;;;;;5.00;2.80;;;6.50;96.60;;;;;;4999697;28;20050;-66
2023/04/21 05:49:03;;;;;;;11.77;2.75;;;6.50;96.50;;;;;;4996439;28;20054;-66
2023/04/21 05:51:31;;;;;;;15.20;3.90;;;6.50;96.70;;;;;;5015584;28;20061;-66
2023/04/21 05:53:58;;;;;;;7.25;2.70;;;6.60;96.70;;;;;;5014266;28;20124;-66
2023/04/21 05:56:24;;;;;;;23.30;3.72;;;6.70;96.00;;;;;;5011838;28;20059;-66
2023/04/21 05:58:51;;;;;;;8.00;2.10;;;6.80;96.20;;;;;;5000667;28;20415;-66
2023/04/21 06:01:18;;;;;;;22.27;2.65;;;6.90;96.10;;;;;;4994760;28;20054;-66
2023/04/21 06:03:48;;;;;;;8.18;3.10;;;7.00;96.20;;;;;;5018339;28;20049;-65
2023/04/21 06:06:16;;;;;;;10.35;3.92;;;7.00;96.40;;;;;;5004467;28;20045;-65
2023/04/21 06:08:43;;;;;;;46.03;6.95;;;7.10;96.90;;;;;;5011540;28;20188;-65
2023/04/21 06:11:10;;;;;;;15.50;3.90;;;7.10;96.90;;;;;;5011496;28;20041;-65
2023/04/21 06:13:37;;;;;;;6.72;2.65;;;7.10;96.50;;;;;;5019150;28;20091;-65
2023/04/21 06:16:06;;;;;;;24.67;7.15;;;7.20;96.60;;;;;;5000435;28;20147;-65
2023/04/21 06:18:32;;;;;;;13.85;3.33;;;7.20;96.80;;;;;;5016506;28;20053;-66
2023/04/21 06:20:59;;;;;;;24.67;5.07;;;7.30;96.40;;;;;;5018174;28;20402;-65
2023/04/21 06:23:26;;;;;;;10.82;3.15;;;7.30;96.30;;;;;;5018401;28;20072;-66
2023/04/21 06:26:04;;;;;;;12.80;4.00;;;7.40;96.40;;;;;;5002041;28;20071;-66
2023/04/21 06:28:35;;;;;;;15.32;4.55;;;7.40;96.50;;;;;;5003345;28;20143;-66
2023/04/21 06:31:02;;;;;;;5.57;2.80;;;7.40;96.60;;;;;;5010642;28;20196;-66
2023/04/21 06:33:33;;;;;;;25.98;4.88;;;7.50;96.30;;;;;;5006315;28;20045;-66
2023/04/21 06:36:00;;;;;;;9.48;2.55;;;7.50;96.50;;;;;;5000164;28;20140;-66
2023/04/21 06:38:27;;;;;;;20.48;4.25;;;7.60;96.60;;;;;;5008349;28;20050;-66
2023/04/21 06:40:54;;;;;;;5.50;3.20;;;7.60;96.80;;;;;;4998580;28;20142;-66
2023/04/21 06:43:21;;;;;;;7.07;4.25;;;7.70;96.70;;;;;;5011728;28;20060;-67
2023/04/21 06:45:48;;;;;;;5.68;3.13;;;7.80;96.60;;;;;;5001187;28;20057;-66
2023/04/21 06:48:15;;;;;;;6.78;3.10;;;7.80;96.60;;;;;;5015366;28;20136;-66
2023/04/21 06:50:45;;;;;;;32.85;9.32;;;7.80;96.70;;;;;;5008902;28;20058;-66
2023/04/21 06:53:12;;;;;;;7.18;3.50;;;7.80;96.70;;;;;;5011584;28;20096;-67
2023/04/21 06:55:39;;;;;;;22.65;5.53;;;7.80;96.50;;;;;;5027213;28;20058;-67
2023/04/21 06:58:06;;;;;;;16.13;3.40;;;7.90;96.80;;;;;;5001944;28;20049;-66
2023/04/21 07:00:33;;;;;;;7.07;4.28;;;8.00;96.70;;;;;;5020375;28;20038;-66
2023/04/21 07:02:59;;;;;;;25.35;5.03;;;8.00;97.00;;;;;;5018173;28;20059;-66
2023/04/21 07:05:27;;;;;;;5.50;3.13;;;8.00;96.80;;;;;;5017490;28;20478;-66
2023/04/21 07:07:58;;;;;;;19.40;4.63;;;8.00;96.80;;;;;;5016706;28;20049;-66
2023/04/21 07:10:26;;;;;;;7.18;3.08;;;8.00;96.90;;;;;;5013694;28;20042;-68
2023/04/21 07:12:54;;;;;;;7.25;4.07;;;8.00;97.00;;;;;;5011842;28;20053;-66
2023/04/21 07:15:21;;;;;;;4.68;2.65;;;8.10;97.10;;;;;;5001804;28;20841;-66
2023/04/21 07:17:48;;;;;;;2.58;1.77;;;8.20;97.30;;;;;;5012932;28;20053;-66
2023/04/21 07:20:16;;;;;;;3.55;2.45;;;8.10;97.40;;;;;;5018149;28;20402;-67
2023/04/21 07:22:43;;;;;;;2.92;2.10;;;8.20;97.20;;;;;;5015624;28;20053;-66
2023/04/21 07:25:11;;;;;;;5.15;2.63;;;8.30;97.30;;;;;;5013289;28;20077;-66
2023/04/21 07:27:38;;;;;;;3.38;2.97;;;8.30;97.20;;;;;;5021653;28;20124;-66
2023/04/21 07:30:06;;;;;;;9.85;2.90;;;8.30;97.40;;;;;;5001074;28;20069;-66
2023/04/21 07:32:33;;;;;;;6.95;2.58;;;8.30;97.40;;;;;;5011411;28;20055;-66
2023/04/21 07:35:01;;;;;;;3.70;2.40;;;8.20;97.60;;;;;;5019130;28;20091;-67
2023/04/21 07:37:28;;;;;;;11.68;3.38;;;8.20;97.60;;;;;;5010103;28;20057;-66
2023/04/21 07:39:55;;;;;;;3.72;2.67;;;8.20;98.00;;;;;;5002094;28;20050;-66
2023/04/21 07:42:22;;;;;;;6.20;2.65;;;8.30;97.90;;;;;;5018323;28;20076;-66
2023/04/21 07:44:49;;;;;;;12.65;3.72;;;8.30;98.00;;;;;;5014688;28;20049;-67
2023/04/21 07:47:16;;;;;;;5.38;2.53;;;8.30;98.00;;;;;;5017408;28;20119;-66
2023/04/21 07:49:43;;;;;;;8.75;2.90;;;8.40;97.90;;;;;;5018902;28;20365;-66
2023/04/21 07:52:09;;;;;;;5.50;2.70;;;8.30;97.80;;;;;;4999781;28;20124;-67
2023/04/21 07:54:36;;;;;;;9.35;2.83;;;8.30;97.90;;;;;;4998571;28;20045;-66
2023/04/21 07:57:03;;;;;;;5.95;2.60;;;8.20;98.20;;;;;;5003019;28;20548;-67
2023/04/21 07:59:30;;;;;;;5.63;3.00;;;8.20;98.30;;;;;;5011521;28;20118;-66
2023/04/21 08:01:57;;;;;;;7.57;2.60;;;8.20;98.40;;;;;;5013185;28;20624;-66
2023/04/21 08:04:24;;;;;;;21.35;4.00;;;8.10;98.40;;;;;;4995746;28;20052;-66
2023/04/21 08:06:51;;;;;;;4.00;2.72;;;8.20;98.60;;;;;;5004490;28;20479;-66
2023/04/21 08:09:18;;;;;;;5.10;3.08;;;8.30;98.70;;;;;;5017887;28;20148;-66
2023/04/21 08:11:46;;;;;;;5.20;3.22;;;8.30;98.70;;;;;;5013351;28;20517;-66
2023/04/21 08:14:13;;;;;;;6.32;3.20;;;8.30;98.90;;;;;;4998770;28;20156;-66
2023/04/21 08:16:41;;;;;;;4.05;3.45;;;8.20;99.00;;;;;;5022209;28;20050;-66
2023/04/21 08:19:08;;;;;;;7.68;3.65;;;8.30;99.40;;;;;;5014349;28;20076;-66
2023/04/21 08:21:35;;;;;;;4.80;3.83;;;8.40;99.20;;;;;;5007708;28;20520;-66
2023/04/21 08:24:03;;;;;;;4.88;3.35;;;8.30;99.00;;;;;;5015474;28;20136;-66
2023/04/21 08:26:30;;;;;;;9.18;3.88;;;8.40;99.30;;;;;;5005057;28;20045;-66
2023/04/21 08:28:57;;;;;;;5.57;3.28;;;8.40;99.40;;;;;;5015201;28;20053;-66
2023/04/21 08:31:23;;;;;;;5.18;4.65;;;8.50;99.40;;;;;;5008342;28;20432;-64
2023/04/21 08:33:50;;;;;;;11.45;3.47;;;8.50;99.20;;;;;;5015706;28;20056;-65
2023/04/21 08:36:28;;;;;;;8.02;3.55;;;8.50;99.30;;;;;;5020812;28;20101;-65
2023/04/21 08:38:56;;;;;;;7.57;4.53;;;8.70;99.40;;;;;;5018132;28;20049;-65
2023/04/21 08:41:24;;;;;;;12.15;4.15;;;8.70;99.30;;;;;;5003609;28;20118;-65
2023/04/21 08:43:51;;;;;;;4.72;3.58;;;8.80;99.30;;;;;;5000827;28;20065;-65
2023/04/21 08:46:18;;;;;;;8.80;4.90;;;8.70;99.40;;;;;;5020280;28;20046;-65
2023/04/21 08:48:46;;;;;;;5.38;3.80;;;8.80;99.90;;;;;;5016925;28;20049;-65
2023/04/21 08:51:20;;;;;;;11.10;4.57;;;9.00;99.10;;;;;;5017370;28;20049;-65
2023/04/21 08:53:47;;;;;;;32.38;6.72;;;9.00;99.10;;;;;;5017313;28;20144;-65
2023/04/21 08:56:14;;;;;;;6.93;4.10;;;9.00;99.10;;;;;;5015982;28;20104;-66
2023/04/21 08:58:41;;;;;;;8.65;2.97;;;8.80;99.40;;;;;;4997264;28;20046;-66
2023/04/21 09:01:08;;;;;;;6.40;3.30;;;8.80;99.90;;;;;;5006926;28;20045;-65
2023/04/21 09:03:35;;;;;;;4.68;3.63;;;8.90;99.90;;;;;;5018363;28;20064;-65
2023/04/21 09:06:07;;;;;;;7.20;3.95;;;9.00;99.90;;;;;;5012287;28;20486;-65
2023/04/21 09:08:42;;;;;;;7.72;3.90;;;8.90;99.90;;;;;;5009060;28;20057;-65
2023/04/21 09:11:13;;;;;;;7.60;3.83;;;9.00;99.70;;;;;;5006458;28;20053;-65
2023/04/21 09:13:41;;;;;;;7.68;3.80;;;9.00;99.90;;;;;;4996405;28;20046;-65
2023/04/21 09:16:19;;;;;;;9.95;4.03;;;9.00;99.90;;;;;;5004788;28;20116;-67
2023/04/21 09:18:46;;;;;;;5.40;2.80;;;9.10;99.70;;;;;;5002685;28;20057;-65
2023/04/21 09:21:14;;;;;;;4.88;3.67;;;9.10;99.40;;;;;;5004036;28;20085;-65
2023/04/21 09:23:49;;;;;;;6.90;4.07;;;9.10;99.60;;;;;;5005384;28;20053;-65
2023/04/21 09:26:19;;;;;;;6.72;3.13;;;9.10;99.90;;;;;;4994079;28;20041;-65
2023/04/21 09:28:47;;;;;;;11.70;3.45;;;9.20;99.90;;;;;;4996635;28;20060;-65
2023/04/21 09:31:15;;;;;;;7.72;3.83;;;9.20;99.90;;;;;;5000651;28;20062;-65
2023/04/21 09:33:46;;;;;;;6.28;3.70;;;9.20;99.90;;;;;;5017335;28;20076;-65
2023/04/21 09:36:30;;;;;;;9.35;3.90;;;9.20;99.90;;;;;;5018718;28;20076;-66
2023/04/21 09:39:00;;;;;;;6.18;3.40;;;9.30;99.90;;;;;;5004981;28;20054;-65
2023/04/21 09:41:31;;;;;;;12.00;4.50;;;9.30;99.90;;;;;;5017311;28;20045;-65
2023/04/21 09:44:03;;;;;;;7.80;3.33;;;9.30;99.90;;;;;;4999949;28;20050;-65
2023/04/21 09:46:35;;;;;;;5.95;3.28;;;9.20;99.80;;;;;;5017594;28;20041;-66
2023/04/21 09:49:03;;;;;;;14.07;5.28;;;9.40;99.60;;;;;;5001999;28;20100;-66
2023/04/21 09:51:31;;;;;;;12.57;4.03;;;9.40;99.70;;;;;;5001027;28;20132;-66
2023/04/21 09:54:20;;;;;;;16.23;5.35;;;9.60;99.20;;;;;;5018155;28;20061;-65
2023/04/21 09:57:02;;;;;;;13.82;5.35;;;9.70;99.00;;;;;;5011130;28;20057;-66
2023/04/21 09:59:36;;;;;;;6.68;3.28;;;9.80;99.10;;;;;;5010755;28;20148;-66
2023/04/21 10:02:07;;;;;;;12.10;4.65;;;10.00;99.00;;;;;;5017629;28;20068;-66
2023/04/21 10:04:36;;;;;;;9.20;4.15;;;10.10;98.40;;;;;;5009032;28;20660;-66
2023/04/21 10:07:05;;;;;;;5.57;3.42;;;10.10;99.40;;;;;;4992471;28;20054;-66
2023/04/21 10:09:45;;;;;;;7.38;4.60;;;10.00;99.20;;;;;;5013092;28;20590;-66
2023/04/21 10:12:14;;;;;;;5.68;2.53;;;9.80;99.70;;;;;;5018135;28;20053;-66
2023/04/21 10:14:41;;;;;;;4.53;3.03;;;9.80;99.10;;;;;;5002188;28;20444;-67
2023/04/21 10:17:09;;;;;;;4.57;4.07;;;9.90;99.90;;;;;;5022417;28;20476;-66
2023/04/21 10:19:46;;;;;;;23.92;4.30;;;10.00;99.90;;;;;;5013467;28;20472;-66
2023/04/21 10:22:13;;;;;;;9.18;3.67;;;10.00;99.90;;;;;;5013245;28;20050;-66
2023/04/21 10:24:41;;;;;;;11.70;4.45;;;9.80;99.90;;;;;;5011210;28;20054;-69
2023/04/21 10:27:10;;;;;;;7.25;3.35;;;10.00;99.90;;;;;;5018665;28;20077;-66
2023/04/21 10:29:38;;;;;;;4.07;3.67;;;9.90;99.90;;;;;;5012703;28;20045;-65
2023/04/21 10:32:41;;;;;;;4.53;3.20;;;9.90;99.90;;;;;;5026547;28;20512;-65
2023/04/21 10:35:09;;;;;;;4.72;4.25;;;10.00;99.90;;;;;;5003205;28;20054;-66
2023/04/21 10:37:36;;;;;;;4.57;3.95;;;10.00;99.90;;;;;;5019867;28;20164;-66
2023/04/21 10:40:10;;;;;;;3.55;2.78;;;10.20;99.90;;;;;;5008366;28;20054;-65
2023/04/21 10:42:36;;;;;;;5.32;2.95;;;10.30;99.80;;;;;;4996510;28;20526;-65
2023/04/21 10:45:08;;;;;;;5.82;2.95;;;10.30;99.90;;;;;;4997797;28;20054;-65
2023/04/21 10:47:47;;;;;;;6.03;4.55;;;10.30;99.90;;;;;;5009030;28;21033;-65
2023/04/21 10:50:16;;;;;;;9.63;3.60;;;10.50;99.20;;;;;;5006251;28;20060;-66
2023/04/21 10:52:52;;;;;;;7.03;3.20;;;10.60;99.90;;;;;;5001635;28;20140;-66
2023/04/21 10:55:21;;;;;;;10.55;3.40;;;10.80;98.60;;;;;;5010451;28;20108;-66
2023/04/21 10:57:48;;;;;;;6.20;3.47;;;11.10;97.20;;;;;;5017165;28;20124;-67
2023/04/21 11:00:17;;;;;;;7.97;4.10;;;11.30;97.90;;;;;;5008828;28;20046;-67
2023/04/21 11:02:56;;;;;;;5.37;2.60;;;11.50;97.20;;;;;;5001583;28;20042;-66
2023/04/21 11:05:40;;;;;;;5.43;3.00;;;11.60;96.40;;;;;;5009947;28;20141;-66
2023/04/21 11:08:13;;;;;;;4.28;2.22;;;11.80;97.10;;;;;;5016416;28;20408;-67
2023/04/21 11:10:44;;;;;;;9.10;2.72;;;11.90;96.70;;;;;;5003685;28;20061;-66
2023/04/21 11:13:11;;;;;;;9.15;3.20;;;12.10;96.60;;;;;;5020178;28;20056;-65
2023/04/21 11:15:39;;;;;;;5.32;2.65;;;12.20;96.60;;;;;;5012757;28;20049;-63
2023/04/21 11:18:08;;;;;;;4.88;3.08;;;12.10;97.30;;;;;;5004256;28;20109;-66
2023/04/21 11:20:40;;;;;;;4.45;2.53;;;11.60;98.20;;;;;;5006802;28;20054;-65
2023/04/21 11:23:07;;;;;;;7.30;3.80;;;11.20;97.90;;;;;;5003757;28;20072;-66
2023/04/21 11:25:34;;;;;;;8.05;3.28;;;11.20;98.60;;;;;;5016244;28;20144;-64
2023/04/21 11:28:01;;;;;;;9.27;2.95;;;11.30;98.10;;;;;;5001264;28;20057;-66
2023/04/21 11:30:32;;;;;;;3.88;2.72;;;11.30;97.80;;;;;;5011806;28;20050;-64
2023/04/21 11:33:00;;;;;;;6.70;3.03;;;11.40;97.10;;;;;;5010285;28;20053;-64
2023/04/21 11:35:27;;;;;;;4.63;3.88;;;11.30;98.60;;;;;;5016993;28;20050;-65
2023/04/21 11:37:54;;;;;;;5.88;3.05;;;11.10;98.40;;;;;;4999342;28;20050;-65
2023/04/21 11:40:21;;;;;;;8.88;4.25;;;11.20;99.60;;;;;;5008785;28;20099;-65
2023/04/21 11:42:49;;;;;;;7.95;3.40;;;11.30;99.40;;;;;;5010184;28;20160;-66
2023/04/21 11:45:19;;;;;;;5.15;3.58;;;11.30;99.10;;;;;;4993894;28;20153;-65
2023/04/21 11:47:48;;;;;;;5.90;2.80;;;11.40;99.70;;;;;;4990432;28;20053;-65
2023/04/21 11:50:31;;;;;;;10.75;4.22;;;11.40;99.30;;;;;;5003892;28;20583;-65
2023/04/21 11:52:57;;;;;;;8.50;3.85;;;11.40;99.60;;;;;;5010819;28;20080;-65
2023/04/21 11:55:24;;;;;;;5.10;3.80;;;11.30;99.60;;;;;;5019953;28;20048;-66
2023/04/21 11:57:51;;;;;;;5.85;3.58;;;11.30;99.40;;;;;;5016696;28;20056;-66
2023/04/21 12:00:19;;;;;;;7.65;3.30;;;11.40;98.70;;;;;;5010457;28;20064;-66
2023/04/21 12:02:56;;;;;;;7.25;3.33;;;11.50;97.40;;;;;;4998616;28;20058;-66
2023/04/21 12:05:23;;;;;;;3.28;2.55;;;11.70;97.40;;;;;;5002091;28;20058;-65
2023/04/21 12:07:54;;;;;;;3.15;2.50;;;11.60;96.20;;;;;;5011341;28;20053;-66
2023/04/21 12:10:21;;;;;;;4.22;2.97;;;11.50;95.40;;;;;;5005851;28;20134;-66
2023/04/21 12:12:48;;;;;;;6.85;2.50;;;11.50;94.90;;;;;;4997560;28;20057;-65
2023/04/21 12:15:21;;;;;;;3.65;3.15;;;11.60;95.00;;;;;;5011281;28;20045;-66
2023/04/21 12:17:50;;;;;;;6.45;4.20;;;11.60;96.20;;;;;;5009632;28;20471;-65
2023/04/21 12:20:27;;;;;;;7.97;2.47;;;11.70;96.30;;;;;;5013529;28;20057;-65
2023/04/21 12:22:55;;;;;;;4.57;2.65;;;11.90;94.80;;;;;;5019382;28;20719;-65
2023/04/21 12:25:23;;;;;;;4.40;2.22;;;11.80;92.90;;;;;;5003143;28;20061;-65
2023/04/21 12:27:51;;;;;;;3.22;1.90;;;11.90;92.80;;;;;;5011423;28;20077;-65
2023/04/21 12:30:19;;;;;;;2.45;2.03;;;12.00;94.70;;;;;;5018162;28;20045;-66
2023/04/21 12:32:46;;;;;;;4.40;2.38;;;11.90;91.60;;;;;;5011399;28;20070;-67
2023/04/21 12:35:14;;;;;;;6.20;3.00;;;12.00;91.40;;;;;;5005231;28;20107;-65
2023/04/21 12:37:41;;;;;;;2.88;2.25;;;12.00;92.60;;;;;;5017420;28;20506;-65
2023/04/21 12:40:08;;;;;;;3.88;2.42;;;12.10;92.20;;;;;;5015102;28;20057;-66
2023/04/21 12:42:35;;;;;;;3.00;2.67;;;12.20;92.30;;;;;;5014870;28;20472;-65
2023/04/21 12:45:05;;;;;;;3.20;1.67;;;12.30;92.20;;;;;;5015363;28;20085;-65
2023/04/21 12:47:32;;;;;;;2.67;2.17;;;12.20;90.90;;;;;;5014138;28;20045;-64
2023/04/21 12:50:00;;;;;;;6.85;2.65;;;12.20;91.00;;;;;;5001248;28;20137;-66
2023/04/21 12:52:27;;;;;;;4.40;1.20;;;12.30;89.80;;;;;;5010479;28;20045;-64
2023/04/21 12:54:54;;;;;;;2.75;2.28;;;12.40;89.90;;;;;;5013438;28;20107;-64
2023/04/21 12:57:20;;;;;;;1.83;1.70;;;12.50;91.50;;;;;;5017413;28;20535;-65
2023/04/21 12:59:47;;;;;;;5.72;2.45;;;12.80;91.00;;;;;;5015752;28;20053;-65